Aviation Digital Data Service (ADDS)

Output produced by METARs form (2053 UTC 29 May 2017)
found at http://www.aviationweather.gov/adds/metars/
 
ZBHH 292000Z 03002MPS 360V080 9999 -SHRA BKN040 FEW040CB 16/13 Q1011 NOSIG
TAF ZBHH 291511Z 2918/3018 09004MPS 9999 FEW040 TX27/3007Z TN18/2921Z 
     TEMPO 3010/3014 -TSRA FEW040CB SCT040
       
ZGGG 292030Z 10002MPS 8000 SCT043 25/22 Q1009 NOSIG
TAF ZGGG 291501Z 2918/3018 12004MPS 8000 SCT040 TX33/3007Z TN24/2922Z 
     BECMG 2921/2922 4000 BR 
     BECMG 3001/3002 6000
       
ZGSZ 292000Z 11002MPS 080V150 9999 BKN020 26/21 Q1009 NOSIG
TAF ZGSZ 291501Z 2918/3018 11004MPS 6000 FEW040 TX31/3006Z TN25/2922Z 
     BECMG 3002/3003 24004MPS 
     BECMG 3011/3012 14004MPS
       
ZBTJ 292030Z 35003MPS 4000 BR NSC 17/15 Q1009 NOSIG
TAF ZBTJ 291523Z 2918/3018 10004MPS 3500 -RA BR BKN030 TX26/3007Z TN16/2921Z 
     BECMG 3001/3002 5000 BR
       
ZBAA 292030Z VRB01MPS 9999 -SHRA NSC 18/16 Q1009 NOSIG
TAF COR ZBAA 291550Z 2918/3018 18004MPS CAVOK TX27/3007Z TN17/2921Z 
     TEMPO 2918/2923 FEW040CB BKN040
       
ZSFZ 292000Z 35002MPS 310V030 9999 FEW033 23/21 Q1011 NOSIG
TAF ZSFZ 291513Z 2918/3018 04004MPS 5000 BR SCT020 TX27/3006Z TN21/2921Z
       
ZYCC 292000Z 26004MPS 240V300 9999 SCT030 15/08 Q1005 NOSIG
TAF ZYCC 291338Z 2918/3018 22008G14MPS 6000 FEW026 TX25/3006Z TN12/2922Z
       
ZWWW 292030Z 16004MPS CAVOK 20/08 Q1010 NOSIG
TAF ZWWW 291505Z 2918/3018 17004MPS CAVOK TX32/3009Z TN19/2923Z 
     BECMG 3002/3003 36004MPS 
     BECMG 3014/3015 28004G09MPS 9999 -SHRA BKN030
       
ZSAM 292000Z 09002MPS 060V120 CAVOK 25/19 Q1010 NOSIG
TAF ZSAM 291501Z 2918/3018 10004MPS 5000 BR SCT030 TX31/3006Z TN22/2921Z
       
ZSSS 292030Z 14004MPS CAVOK 21/19 Q1009 NOSIG
TAF ZSSS 291511Z 2918/3018 15004MPS 5000 BR SCT020 TX31/3006Z TN21/2921Z
       
ZGHA 292000Z VRB01MPS CAVOK 23/19 Q1007 NOSIG
TAF ZGHA 291508Z 2918/3018 19004MPS 4000 BR NSC TX35/3007Z TN23/2922Z
       
ZUCK 292000Z 02002MPS CAVOK 22/16 Q1008 NOSIG
TAF ZUCK 291500Z 2918/3018 03003MPS 5000 BR SCT050 TX28/3008Z TN22/2922Z 
     TEMPO 2918/2924 -SHRA
       
ZWSH 292000Z AUTO 31005MPS CAVOK 24/M05 Q1012
TAF ZWSH 291511Z 2918/3018 32004MPS 9999 FEW040 TX32/3009Z TN22/3000Z 
     BECMG 3004/3005 09004MPS 
     BECMG 3014/3015 31004MPS
       
ZGKL 292000Z 32002MPS 5000 BR NSC 21/20 Q1009 NOSIG
TAF ZGKL 291505Z 2918/3018 18003MPS 6000 NSC TX32/3008Z TN18/2923Z
       
ZSNB 292000Z 16002MPS CAVOK 21/20 Q1010 NOSIG
TAF ZSNB 291430Z 2918/3018 15004MPS 5000 BR SCT030 TX30/3006Z TN19/2921Z
       
ZSQD 292000Z 17006MPS CAVOK 23/12 Q1008 NOSIG
TAF ZSQD 291509Z 2918/3018 18004MPS 5000 BR NSC TX33/3006Z TN21/2921Z
       
ZSNJ 292000Z 13003MPS CAVOK 22/19 Q1007 NOSIG
TAF ZSNJ 291508Z 2918/3018 16004MPS 3000 HZ FEW030 TX34/3007Z TN20/2921Z
       
ZSOF 292000Z 18004MPS CAVOK 24/17 Q1006 NOSIG
TAF ZSOF 291500Z 2918/3018 14003MPS 5000 HZ NSC TX34/3007Z TN21/2921Z
       
ZJHK 292000Z 06002MPS CAVOK 26/25 Q1008 NOSIG
TAF ZJHK 291504Z 2918/3018 10004MPS 9999 SCT016 TX31/3006Z TN24/2920Z 
     TEMPO 3006/3012 SCT016 FEW026CB
       
ZJSY 292000Z 34002MPS 300V360 9999 FEW020 BKN050 27/25 Q1008 NOSIG
TAF ZJSY 291502Z 2918/3018 08004MPS 9999 SCT018 TX33/3006Z TN26/2921Z 
     BECMG 3002/3003 22005MPS 
     TEMPO 3006/3012 SCT016 FEW025CB BKN040
       
ZSPD 292030Z 16004MPS CAVOK 20/19 Q1010 NOSIG
TAF ZSPD 291518Z 2918/3018 14004MPS 5000 BR SCT020 TX31/3006Z TN18/2920Z
       
ZUUU 292000Z 00000MPS 8000 NSC 23/19 Q1009 NOSIG
TAF ZUUU 291403Z 2918/3018 03004MPS 6000 SCT050 TX31/3008Z TN20/2922Z 
     TEMPO 2918/2922 -SHRA FEW030CB SCT030
       
ZYHB 292000Z 27005MPS CAVOK 12/02 Q1002 NOSIG
TAF ZYHB 291504Z 2918/3018 31004MPS 6000 SCT030 TX22/3006Z TN10/2921Z 
     TEMPO 2918/2924 FEW020CB SCT023
       
ZYTX 292030Z 31003MPS 200V330 CAVOK 14/12 Q1008 NOSIG
TAF ZYTX 291331Z 2918/3018 19004MPS CAVOK TX27/3006Z TN14/2921Z
       
ZHHH 292000Z 07002MPS 040V120 7000 NSC 26/20 Q1006 NOSIG
TAF ZHHH 291505Z 2918/3018 13003MPS 3000 BR NSC TX32/3007Z TN20/2922Z
       
ZPPP 292000Z 22004MPS CAVOK 15/11 Q1019 NOSIG
TAF ZPPP 291304Z 2918/3018 22004MPS 9999 SCT026 TX27/3008Z TN14/2922Z
       
ZBYN 292030Z 13002MPS CAVOK 16/10 Q1011 NOSIG
TAF ZBYN 291517Z 2918/3018 09006G12MPS 5000 HZ NSC TX31/3007Z TN16/2921Z 
     TEMPO 3008/3012 -TSRA FEW030CB SCT040
       
ZGNN 292000Z 11002MPS CAVOK 24/21 Q1009 NOSIG
TAF ZGNN 291506Z 2918/3018 15004MPS 7000 FEW013 TX33/3007Z TN23/2922Z
       
ZLXY 292000Z 00000MPS 3000 BR SCT060 17/17 Q1010 NOSIG
TAF ZLXY 291509Z 2918/3018 22003MPS 4000 HZ NSC TX33/3007Z TN16/2921Z
       
ZSHC 292030Z 14002MPS CAVOK 23/19 Q1009 NOSIG
TAF ZSHC 291504Z 2918/3018 15003MPS 3000 HZ NSC TX33/3006Z TN20/2921Z
       
ZHCC 292000Z 02004MPS 5000 HZ NSC 24/16 Q1007 NOSIG
TAF ZHCC 291507Z 2918/3018 12003MPS 6000 NSC TX34/3007Z TN23/2922Z
       
ZBSJ 292000Z 11001MPS CAVOK 17/12 Q1009 NOSIG
TAF ZBSJ 291519Z 2918/3018 35004MPS CAVOK TX29/3006Z TN16/2921Z 
     TEMPO 3010/3016 -TSRA SCT033CB BKNO40
       
ZLLL 292000Z 35003MPS 320V020 CAVOK 12/03 Q1017 NOSIG
TAF ZLLL 291510Z 2918/3018 05003MPS CAVOK TX28/3009Z TN09/2923Z
       
ZYTL 292030Z 13004MPS 100V160 9999 SCT026 18/13 Q1008 NOSIG
TAF ZYTL 291513Z 2918/3018 10004MPS 4000 -SHRA BR SCT020 TX23/3006Z TN17/2920Z 
     BECMG 2923/2924 6000 SCT033 
     TEMPO 2918/2924 33006G12MPS 2000 TSRA BR SCT010 BKN026 FEW033CB